Time;durP1;ratioP1;P1;durP2;ratioP2;P2;SDS_P1;SDS_P2;PMS_P1;PMS_P2;Temp;Humidity;BMP_temperature;BMP_pressure;BME280_temperature;BME280_humidity;BME280_pressure;Samples;Min_cycle;Max_cycle;Signal;HPM_P1;HPM_P2
2022/02/03 00:00:44;;;;;;;;;;;8.10;99.90;;;;;;5174890;27;20014;-81
2022/02/03 00:03:50;;;;;;;;;;;8.10;99.90;;;;;;5173761;27;39590;-81
2022/02/03 00:06:12;;;;;;;;;;;8.10;99.90;;;;;;5173529;27;19992;-81
2022/02/03 00:09:23;;;;;;;;;;;8.10;99.90;;;;;;5174400;27;33666;-81
2022/02/03 00:25:16;;;;;;;;;;;8.10;99.90;;;;;;5173621;27;19991;-81
2022/02/03 00:31:31;;;;;;;;;;;8.10;99.90;;;;;;5175844;27;19989;-81
2022/02/03 00:33:36;;;;;;;;;;;8.10;99.90;;;;;;5169938;27;20295;-81
2022/02/03 00:36:24;;;;;;;;;;;8.10;99.90;;;;;;5174096;27;20013;-81
2022/02/03 00:50:28;;;;;;;;;;;8.10;99.90;;;;;;5174531;27;20048;-81
2022/02/03 00:52:57;;;;;;;;;;;8.10;99.90;;;;;;5173248;27;19997;-81
2022/02/03 00:55:29;;;;;;;;;;;8.10;99.90;;;;;;5174639;27;20026;-81
2022/02/03 00:58:01;;;;;;;;;;;8.10;99.90;;;;;;5175063;27;19993;-81
2022/02/03 01:00:35;;;;;;;;;;;8.10;99.90;;;;;;5156160;27;20035;-81
2022/02/03 01:03:12;;;;;;;;;;;8.10;99.90;;;;;;5174672;27;20023;-81
2022/02/03 01:05:47;;;;;;;;;;;8.10;99.90;;;;;;5190012;27;29749;-81
2022/02/03 01:08:17;;;;;;;;;;;8.00;99.90;;;;;;5173947;27;37451;-81
2022/02/03 01:11:03;;;;;;;;;;;8.10;99.90;;;;;;5173373;27;20005;-81
2022/02/03 01:16:31;;;;;;;;;;;8.10;99.90;;;;;;5175399;27;20036;-81
2022/02/03 01:33:29;;;;;;;;;;;8.00;99.90;;;;;;5171719;27;46018;-81
2022/02/03 01:44:03;;;;;;;;;;;8.00;99.90;;;;;;5171762;27;47173;-81
2022/02/03 01:46:56;;;;;;;;;;;8.00;99.90;;;;;;5171942;27;42695;-81
2022/02/03 01:51:37;;;;;;;;;;;8.00;99.90;;;;;;5173351;27;20428;-81
2022/02/03 01:52:18;;;;;;;;;;;8.00;99.90;;;;;;5173833;27;38656;-81
2022/02/03 01:54:57;;;;;;;;;;;8.00;99.90;;;;;;5171827;27;43855;-81
2022/02/03 01:57:29;;;;;;;;;;;8.00;99.90;;;;;;5173647;27;38653;-81
2022/02/03 02:00:07;;;;;;;;;;;8.00;99.90;;;;;;5172836;27;20444;-81
2022/02/03 02:02:42;;;;;;;;;;;8.00;99.90;;;;;;5139094;27;20012;-81
2022/02/03 02:05:30;;;;;;;;;;;8.00;99.90;;;;;;5174372;27;20039;-81
2022/02/03 02:08:07;;;;;;;;;;;8.00;99.90;;;;;;5184684;27;20401;-81
2022/02/03 02:11:15;;;;;;;;;;;8.00;99.90;;;;;;5173906;27;20027;-81
2022/02/03 02:14:25;;;;;;;;;;;8.00;99.90;;;;;;5174693;27;20004;-80
2022/02/03 02:40:03;;;;;;;;;;;8.00;99.90;;;;;;5174342;27;19988;-81
2022/02/03 02:42:39;;;;;;;;;;;8.00;99.90;;;;;;5175550;27;20039;-81
2022/02/03 02:45:16;;;;;;;;;;;8.00;99.90;;;;;;5174551;27;19993;-81
2022/02/03 02:47:57;;;;;;;;;;;7.90;99.90;;;;;;5173432;27;20000;-81
2022/02/03 02:50:44;;;;;;;;;;;8.00;99.90;;;;;;5191627;27;20019;-81
2022/02/03 02:54:18;;;;;;;;;;;8.00;99.90;;;;;;5173896;27;20867;-80
2022/02/03 02:56:28;;;;;;;;;;;8.00;99.90;;;;;;5169936;27;44623;-81
2022/02/03 03:30:30;;;;;;;;;;;8.00;99.90;;;;;;5172489;27;44887;-81
2022/02/03 03:35:52;;;;;;;;;;;7.90;99.90;;;;;;5175836;27;20010;-81
2022/02/03 03:38:28;;;;;;;;;;;8.00;99.90;;;;;;5174484;27;36472;-81
2022/02/03 03:40:59;;;;;;;;;;;8.00;99.90;;;;;;5173926;27;40197;-81
2022/02/03 03:43:35;;;;;;;;;;;8.00;99.90;;;;;;5190260;27;35968;-81
2022/02/03 03:46:08;;;;;;;;;;;8.00;99.90;;;;;;5190466;27;37845;-81
2022/02/03 03:48:58;;;;;;;;;;;8.00;99.90;;;;;;5174347;27;37358;-81
2022/02/03 03:51:40;;;;;;;;;;;7.90;99.90;;;;;;5174854;27;20048;-81
2022/02/03 03:54:17;;;;;;;;;;;8.00;99.90;;;;;;5175500;27;20044;-81
2022/02/03 03:57:07;;;;;;;;;;;7.90;99.90;;;;;;5191415;27;19999;-80
2022/02/03 04:40:16;;;;;;;;;;;7.90;99.90;;;;;;5175316;27;20003;-81
2022/02/03 04:50:43;;;;;;;;;;;7.90;99.90;;;;;;5174075;27;35692;-81
2022/02/03 05:12:06;;;;;;;;;;;7.90;99.90;;;;;;5174618;27;19992;-81
2022/02/03 05:15:21;;;;;;;;;;;7.80;99.90;;;;;;5173935;27;20006;-81
2022/02/03 05:44:50;;;;;;;;;;;7.80;99.90;;;;;;5174162;27;29634;-81
2022/02/03 06:11:56;;;;;;;;;;;7.80;99.90;;;;;;5174674;27;43766;-82
2022/02/03 06:12:55;;;;;;;;;;;7.80;99.90;;;;;;5175140;27;31096;-82
2022/02/03 06:23:55;;;;;;;;;;;7.70;99.90;;;;;;5174052;27;44516;-81
2022/02/03 06:29:21;;;;;;;;;;;7.70;99.90;;;;;;5175517;27;20000;-82
2022/02/03 06:31:54;;;;;;;;;;;7.70;99.90;;;;;;5175877;27;20035;-81
2022/02/03 06:34:22;;;;;;;;;;;7.70;99.90;;;;;;5175277;27;20430;-81
2022/02/03 06:36:53;;;;;;;;;;;7.70;99.90;;;;;;5176375;27;20060;-81
2022/02/03 06:39:29;;;;;;;;;;;7.70;99.90;;;;;;5175081;27;20389;-81
2022/02/03 06:42:04;;;;;;;;;;;7.70;99.90;;;;;;5174343;27;19997;-81
2022/02/03 06:44:41;;;;;;;;;;;7.70;99.90;;;;;;5174569;27;20030;-81
2022/02/03 06:47:33;;;;;;;;;;;7.70;99.90;;;;;;5174593;27;20037;-82
2022/02/03 06:50:16;;;;;;;;;;;7.70;99.90;;;;;;5173176;27;22752;-81
2022/02/03 06:52:55;;;;;;;;;;;7.70;99.90;;;;;;5174396;27;20056;-81
2022/02/03 06:56:38;;;;;;;;;;;7.70;99.90;;;;;;5174576;27;20438;-81
2022/02/03 07:01:11;;;;;;;;;;;7.70;99.90;;;;;;5174193;27;20011;-82
2022/02/03 07:03:42;;;;;;;;;;;7.70;99.90;;;;;;5134768;27;45492;-83
2022/02/03 07:06:09;;;;;;;;;;;7.70;99.90;;;;;;5151916;27;37932;-82
2022/02/03 07:08:40;;;;;;;;;;;7.70;99.90;;;;;;5154480;27;20045;-82
2022/02/03 07:11:18;;;;;;;;;;;7.70;99.90;;;;;;5169636;27;34626;-81
2022/02/03 07:13:48;;;;;;;;;;;7.70;99.90;;;;;;5170480;27;20022;-82
2022/02/03 07:16:18;;;;;;;;;;;7.70;99.90;;;;;;5152189;27;32731;-82
2022/02/03 07:18:45;;;;;;;;;;;7.70;99.90;;;;;;5170193;27;30863;-82
2022/02/03 07:21:18;;;;;;;;;;;7.70;99.90;;;;;;5169144;27;37898;-82
2022/02/03 07:23:48;;;;;;;;;;;7.70;99.90;;;;;;5151746;27;40332;-82
2022/02/03 07:26:18;;;;;;;;;;;7.70;99.90;;;;;;5152129;27;25393;-82
2022/02/03 07:28:45;;;;;;;;;;;7.70;99.90;;;;;;5170603;27;20009;-82
2022/02/03 07:31:19;;;;;;;;;;;7.70;99.90;;;;;;5152600;27;31023;-82
2022/02/03 07:33:49;;;;;;;;;;;7.60;99.90;;;;;;5169717;27;30281;-82
2022/02/03 07:36:19;;;;;;;;;;;7.70;99.90;;;;;;5153674;27;32275;-82
2022/02/03 07:38:46;;;;;;;;;;;7.70;99.90;;;;;;5169254;27;29308;-82
2022/02/03 07:41:16;;;;;;;;;;;7.70;99.90;;;;;;5153575;27;20001;-81
2022/02/03 07:43:48;;;;;;;;;;;7.60;99.90;;;;;;5168772;27;45034;-82
2022/02/03 07:46:18;;;;;;;;;;;7.60;99.90;;;;;;5151617;27;41149;-82
2022/02/03 07:48:45;;;;;;;;;;;7.60;99.90;;;;;;5151512;27;41756;-81
2022/02/03 07:51:17;;;;;;;;;;;7.60;99.90;;;;;;5170583;27;20382;-81
2022/02/03 07:53:50;;;;;;;;;;;7.60;99.90;;;;;;5170521;27;20047;-81
2022/02/03 07:56:21;;;;;;;;;;;7.60;99.90;;;;;;5154737;27;20026;-82
2022/02/03 07:58:51;;;;;;;;;;;7.60;99.90;;;;;;5154277;27;20419;-82
2022/02/03 08:01:18;;;;;;;;;;;7.60;99.90;;;;;;5170532;27;43544;-82
2022/02/03 08:03:45;;;;;;;;;;;7.60;99.90;;;;;;5175695;27;47007;-81
2022/02/03 08:06:22;;;;;;;;;;;7.60;99.90;;;;;;5175873;27;36348;-82
2022/02/03 08:09:03;;;;;;;;;;;7.60;99.90;;;;;;5177112;27;20004;-82
2022/02/03 08:11:39;;;;;;;;;;;7.60;99.90;;;;;;5176998;27;20393;-82
2022/02/03 08:14:14;;;;;;;;;;;7.60;99.90;;;;;;5194308;27;20006;-82
2022/02/03 08:17:00;;;;;;;;;;;7.50;99.90;;;;;;5175726;27;44183;-82
2022/02/03 08:19:36;;;;;;;;;;;7.60;99.90;;;;;;5192920;27;45222;-82
2022/02/03 08:22:13;;;;;;;;;;;7.60;99.90;;;;;;5158323;27;43293;-82
2022/02/03 08:24:50;;;;;;;;;;;7.60;99.90;;;;;;5194693;27;20407;-82
2022/02/03 08:32:37;;;;;;;;;;;7.50;99.90;;;;;;5194975;27;41983;-82
2022/02/03 08:37:46;;;;;;;;;;;7.50;99.90;;;;;;5176658;27;19988;-81
2022/02/03 08:43:08;;;;;;;;;;;7.50;99.90;;;;;;5192847;27;45215;-82
2022/02/03 08:45:35;;;;;;;;;;;7.40;99.90;;;;;;5193546;27;25129;-82
2022/02/03 08:48:02;;;;;;;;;;;7.40;99.90;;;;;;5158168;27;45475;-83
2022/02/03 08:50:35;;;;;;;;;;;7.40;99.90;;;;;;5175695;27;39310;-82
2022/02/03 08:53:21;;;;;;;;;;;7.40;99.90;;;;;;5176269;27;20048;-82
2022/02/03 08:56:14;;;;;;;;;;;7.40;99.90;;;;;;5193054;27;37350;-82
2022/02/03 09:56:10;;;;;;;;;;;7.30;99.90;;;;;;5194369;27;43674;-81
2022/02/03 09:58:53;;;;;;;;;;;7.30;99.90;;;;;;5175651;27;29426;-82
2022/02/03 10:01:33;;;;;;;;;;;7.30;99.90;;;;;;5193176;27;45308;-82
2022/02/03 10:04:14;;;;;;;;;;;7.40;99.90;;;;;;5194368;27;20036;-82
2022/02/03 10:06:53;;;;;;;;;;;7.30;99.90;;;;;;5175729;27;31536;-81
2022/02/03 10:09:40;;;;;;;;;;;7.30;99.90;;;;;;5194799;27;32478;-82
2022/02/03 10:12:13;;;;;;;;;;;7.30;99.90;;;;;;5193486;27;39791;-81
2022/02/03 10:14:49;;;;;;;;;;;7.30;99.90;;;;;;5175450;27;40164;-82
2022/02/03 10:17:30;;;;;;;;;;;7.30;99.90;;;;;;5175686;27;30325;-81
2022/02/03 10:20:07;;;;;;;;;;;7.30;99.90;;;;;;5196187;27;20032;-81
2022/02/03 10:22:49;;;;;;;;;;;7.30;99.90;;;;;;5194789;27;20015;-81
2022/02/03 10:25:24;;;;;;;;;;;7.30;99.90;;;;;;5176430;27;20008;-81
2022/02/03 10:27:58;;;;;;;;;;;7.20;99.90;;;;;;5195740;27;20010;-81
2022/02/03 10:30:54;;;;;;;;;;;7.30;99.90;;;;;;5194262;27;20399;-81
2022/02/03 10:33:37;;;;;;;;;;;7.30;99.90;;;;;;5195411;27;19996;-81
2022/02/03 10:36:27;;;;;;;;;;;7.30;99.90;;;;;;5176595;27;19996;-81
2022/02/03 10:41:58;;;;;;;;;;;7.30;99.90;;;;;;5177812;27;20407;-81
2022/02/03 10:45:11;;;;;;;;;;;7.30;99.90;;;;;;5178073;27;20023;-81
2022/02/03 10:48:20;;;;;;;;;;;7.30;99.90;;;;;;5177687;27;20002;-81
2022/02/03 10:56:37;;;;;;;;;;;7.20;99.90;;;;;;5196824;27;19996;-81
2022/02/03 11:05:11;;;;;;;;;;;7.20;99.90;;;;;;5197006;27;20010;-81
2022/02/03 11:10:28;;;;;;;;;;;7.20;99.90;;;;;;5196018;27;20014;-81
2022/02/03 11:13:01;;;;;;;;;;;7.20;99.90;;;;;;5177421;27;20389;-82
2022/02/03 11:15:35;;;;;;;;;;;7.20;99.90;;;;;;5195315;27;20012;-81
2022/02/03 11:18:12;;;;;;;;;;;7.20;99.90;;;;;;5177496;27;19995;-81
2022/02/03 11:20:43;;;;;;;;;;;7.20;99.90;;;;;;5197335;27;20011;-81
2022/02/03 11:26:17;;;;;;;;;;;7.20;99.90;;;;;;5176220;27;44073;-81
2022/02/03 11:32:09;;;;;;;;;;;7.20;99.90;;;;;;5177154;27;19992;-81
2022/02/03 11:35:39;;;;;;;;;;;7.20;99.90;;;;;;5176730;27;30144;-82
2022/02/03 11:38:34;;;;;;;;;;;7.20;99.90;;;;;;5195996;27;19996;-82
2022/02/03 12:12:37;;;;;;;;;;;7.10;99.90;;;;;;5196002;27;20047;-81
2022/02/03 12:23:45;;;;;;;;;;;7.10;99.90;;;;;;5196042;27;20006;-81
2022/02/03 12:27:01;;;;;;;;;;;7.10;99.90;;;;;;5196085;27;19996;-81
2022/02/03 12:29:24;;;;;;;;;;;7.10;99.90;;;;;;5178586;27;20035;-81
2022/02/03 12:40:51;;;;;;;;;;;7.10;99.90;;;;;;5194567;27;31022;-82
2022/02/03 12:43:33;;;;;;;;;;;7.10;99.90;;;;;;5193471;27;39365;-82
2022/02/03 12:46:06;;;;;;;;;;;7.10;99.90;;;;;;5177379;27;19992;-82
2022/02/03 12:48:35;;;;;;;;;;;7.10;99.90;;;;;;5195355;27;36793;-82
2022/02/03 12:51:07;;;;;;;;;;;7.10;99.90;;;;;;5195584;27;20047;-81
2022/02/03 12:53:40;;;;;;;;;;;7.10;99.90;;;;;;5194759;27;19998;-82
2022/02/03 12:56:11;;;;;;;;;;;7.10;99.90;;;;;;5175671;27;42829;-81
2022/02/03 12:58:48;;;;;;;;;;;7.10;99.90;;;;;;5193549;27;43030;-81
2022/02/03 13:01:19;;;;;;;;;;;7.10;99.90;;;;;;5175540;27;39226;-82
2022/02/03 13:03:52;;;;;;;;;;;7.10;99.90;;;;;;5194496;27;43314;-82
2022/02/03 13:06:24;;;;;;;;;;;7.10;99.90;;;;;;5175866;27;39488;-82
2022/02/03 13:09:06;;;;;;;;;;;7.10;99.90;;;;;;5194722;27;20373;-82
2022/02/03 13:11:53;;;;;;;;;;;7.10;99.90;;;;;;5194881;27;36119;-82
2022/02/03 13:16:58;;;;;;;;;;;7.10;99.90;;;;;;5195679;27;20047;-81
2022/02/03 13:25:06;;;;;;;;;;;7.10;99.90;;;;;;5195621;27;20405;-82
2022/02/03 13:30:34;;;;;;;;;;;7.10;99.90;;;;;;5196115;27;20039;-81
2022/02/03 13:33:12;;;;;;;;;;;7.10;99.90;;;;;;5176289;27;21133;-81
2022/02/03 13:38:24;;;;;;;;;;;7.10;99.90;;;;;;5176890;27;19996;-82
2022/02/03 13:41:26;;;;;;;;;;;7.10;99.90;;;;;;5195987;27;19999;-81
2022/02/03 13:43:54;;;;;;;;;;;7.10;99.90;;;;;;5194424;27;27469;-82
2022/02/03 13:46:28;;;;;;;;;;;7.10;99.90;;;;;;5177586;27;20036;-82
2022/02/03 13:49:00;;;;;;;;;;;7.10;99.90;;;;;;5196338;27;20413;-81
2022/02/03 13:51:38;;;;;;;;;;;7.10;99.90;;;;;;5194740;27;20035;-81
2022/02/03 13:54:24;;;;;;;;;;;7.10;99.90;;;;;;5194633;27;42603;-81
2022/02/03 14:20:12;;;;;;;;;;;7.10;99.90;;;;;;5197316;27;20026;-81
2022/02/03 14:28:10;;;;;;;;;;;7.10;99.90;;;;;;5196767;27;20002;-81
2022/02/03 14:30:47;;;;;;;;;;;7.10;99.90;;;;;;5195350;27;20276;-81
2022/02/03 14:33:23;;;;;;;;;;;7.10;99.90;;;;;;5177770;27;20025;-81
2022/02/03 14:35:52;;;;;;;;;;;7.10;99.90;;;;;;5177814;27;19989;-81
2022/02/03 14:38:32;;;;;;;;;;;7.10;99.90;;;;;;5195766;27;20011;-81
2022/02/03 14:41:15;;;;;;;;;;;7.10;99.90;;;;;;5197149;27;19996;-81
2022/02/03 14:43:42;;;;;;;;;;;7.20;99.90;;;;;;5178238;27;20023;-81
2022/02/03 14:46:27;;;;;;;;;;;7.10;99.90;;;;;;5176296;27;45520;-82
2022/02/03 14:48:55;;;;;;;;;;;7.10;99.90;;;;;;5194535;27;36564;-81
2022/02/03 14:51:30;;;;;;;;;;;7.10;99.90;;;;;;5176346;27;39856;-82
2022/02/03 14:59:26;;;;;;;;;;;7.10;99.90;;;;;;5196632;27;20328;-81
2022/02/03 15:01:59;;;;;;;;;;;7.10;99.90;;;;;;5177387;27;20328;-81
2022/02/03 15:04:31;;;;;;;;;;;7.10;99.90;;;;;;5196100;27;20032;-81
2022/02/03 15:07:09;;;;;;;;;;;7.10;99.90;;;;;;5195070;27;20034;-82
2022/02/03 15:15:09;;;;;;;;;;;7.10;99.90;;;;;;5177142;27;20036;-81
2022/02/03 15:17:36;;;;;;;;;;;7.10;99.90;;;;;;5176545;27;36527;-82
2022/02/03 15:20:06;;;;;;;;;;;7.10;99.90;;;;;;5176799;27;45257;-82
2022/02/03 15:22:33;;;;;;;;;;;7.10;99.90;;;;;;5195318;27;20404;-82
2022/02/03 15:25:04;;;;;;;;;;;7.10;99.90;;;;;;5194670;27;41047;-81
2022/02/03 15:27:34;;;;;;;;;;;7.10;99.90;;;;;;5177190;27;36470;-82
2022/02/03 15:30:05;;;;;;;;;;;7.10;99.90;;;;;;5196087;27;19998;-81
2022/02/03 15:32:40;;;;;;;;;;;7.10;99.90;;;;;;5194693;27;28112;-81
2022/02/03 15:35:16;;;;;;;;;;;7.10;99.90;;;;;;5177291;27;19993;-81
2022/02/03 15:37:50;;;;;;;;;;;7.10;99.90;;;;;;5177062;27;20390;-81
2022/02/03 15:40:25;;;;;;;;;;;7.10;99.90;;;;;;5195217;27;20004;-81
2022/02/03 15:43:09;;;;;;;;;;;7.10;99.90;;;;;;5195138;27;20351;-82
2022/02/03 15:45:40;;;;;;;;;;;7.10;99.90;;;;;;5176809;27;20521;-81
2022/02/03 15:51:06;;;;;;;;;;;7.10;99.90;;;;;;5175646;27;45336;-82
2022/02/03 16:18:10;;;;;;;;;;;7.10;99.90;;;;;;5195217;27;34278;-81
2022/02/03 16:21:08;;;;;;;;;;;7.10;99.90;;;;;;5194386;27;20000;-81
2022/02/03 16:40:50;;;;;;;;;;;7.10;99.90;;;;;;5196129;27;19993;-81
2022/02/03 16:50:19;;;;;;;;;;;7.10;99.90;;;;;;5175762;27;38042;-81
2022/02/03 16:54:23;;;;;;;;;;;7.10;99.90;;;;;;5176783;27;20026;-81
2022/02/03 16:56:58;;;;;;;;;;;7.10;99.90;;;;;;5195537;27;20008;-82
2022/02/03 16:59:26;;;;;;;;;;;7.00;99.90;;;;;;5175690;27;42856;-82
2022/02/03 17:01:59;;;;;;;;;;;7.00;99.90;;;;;;5190354;27;20398;-81
2022/02/03 17:04:29;;;;;;;;;;;7.00;99.90;;;;;;5189705;27;21512;-81
2022/02/03 17:07:02;;;;;;;;;;;7.00;99.90;;;;;;5174153;27;36611;-82
2022/02/03 17:09:32;;;;;;;;;;;7.00;99.90;;;;;;5189929;27;34132;-82
2022/02/03 17:12:06;;;;;;;;;;;7.00;99.90;;;;;;5172797;27;35178;-82
2022/02/03 17:14:33;;;;;;;;;;;7.00;99.90;;;;;;5171930;27;45305;-82
2022/02/03 17:17:03;;;;;;;;;;;7.10;99.90;;;;;;5171693;27;39514;-81
2022/02/03 17:19:32;;;;;;;;;;;7.00;99.90;;;;;;5173015;27;20006;-81
2022/02/03 17:22:04;;;;;;;;;;;7.00;99.90;;;;;;5173261;27;20085;-81
2022/02/03 17:24:34;;;;;;;;;;;7.00;99.90;;;;;;5173903;27;44547;-81
2022/02/03 17:27:24;;;;;;;;;;;7.00;99.90;;;;;;5173741;27;20382;-81
2022/02/03 17:52:53;;;;;;;;;;;7.00;99.90;;;;;;5174730;27;42956;-81
2022/02/03 18:52:28;;;;;;;;;;;7.00;99.90;;;;;;5174599;27;44525;-82
2022/02/03 18:57:43;;;;;;;;;;;7.00;99.90;;;;;;5174708;27;26577;-81
2022/02/03 20:00:02;;;;;;;;;;;7.00;99.90;;;;;;5196118;27;23478;-81
2022/02/03 20:04:40;;;;;;;;;;;7.00;99.90;;;;;;5216738;27;30570;-81
2022/02/03 20:10:11;;;;;;;;;;;7.00;99.90;;;;;;5196916;27;46932;-81
2022/02/03 20:12:39;;;;;;;;;;;7.00;99.90;;;;;;5198478;27;19995;-81
2022/02/03 20:15:06;;;;;;;;;;;7.00;99.90;;;;;;5197198;27;31092;-81
2022/02/03 20:17:42;;;;;;;;;;;7.00;99.90;;;;;;5197806;27;20015;-81
2022/02/03 20:20:12;;;;;;;;;;;7.00;99.90;;;;;;5197740;27;38790;-81
2022/02/03 20:22:44;;;;;;;;;;;7.00;99.90;;;;;;5197371;27;40780;-81
2022/02/03 20:25:21;;;;;;;;;;;7.00;99.90;;;;;;5216332;27;27334;-81
2022/02/03 20:27:53;;;;;;;;;;;7.00;99.90;;;;;;5197050;27;36953;-81
2022/02/03 20:30:23;;;;;;;;;;;7.00;99.90;;;;;;5216630;27;29698;-81
2022/02/03 20:32:58;;;;;;;;;;;7.00;99.90;;;;;;5197703;27;41518;-81
2022/02/03 20:35:26;;;;;;;;;;;7.00;99.90;;;;;;5179481;27;37243;-81
2022/02/03 20:37:56;;;;;;;;;;;7.00;99.90;;;;;;5215605;27;35189;-81
2022/02/03 20:40:29;;;;;;;;;;;7.00;99.90;;;;;;5197463;27;36353;-81
2022/02/03 20:42:59;;;;;;;;;;;6.90;99.90;;;;;;5181664;27;20025;-81
2022/02/03 20:45:30;;;;;;;;;;;7.00;99.90;;;;;;5216428;27;29835;-81
2022/02/03 20:47:57;;;;;;;;;;;7.00;99.90;;;;;;5197510;27;34283;-81
2022/02/03 20:50:27;;;;;;;;;;;6.90;99.90;;;;;;5197514;27;34307;-81
2022/02/03 20:52:54;;;;;;;;;;;6.90;99.90;;;;;;5197119;27;28365;-81
2022/02/03 20:55:35;;;;;;;;;;;6.90;99.90;;;;;;5198833;27;41681;-81
2022/02/03 20:58:08;;;;;;;;;;;7.00;99.90;;;;;;5197600;27;21394;-81
2022/02/03 21:00:47;;;;;;;;;;;7.00;99.90;;;;;;5216896;27;20381;-81
2022/02/03 21:05:50;;;;;;;;;;;6.90;99.90;;;;;;5217612;27;20003;-81
2022/02/03 21:08:27;;;;;;;;;;;7.00;99.90;;;;;;5196671;27;38550;-81
2022/02/03 21:10:55;;;;;;;;;;;7.00;99.90;;;;;;5196798;27;32235;-81
2022/02/03 21:13:27;;;;;;;;;;;7.00;99.90;;;;;;5196743;27;28578;-81
2022/02/03 21:16:00;;;;;;;;;;;7.00;99.90;;;;;;5179458;27;37960;-81
2022/02/03 21:18:30;;;;;;;;;;;7.00;99.90;;;;;;5196698;27;36627;-81
2022/02/03 21:21:02;;;;;;;;;;;7.00;99.90;;;;;;5197318;27;36755;-81
2022/02/03 21:23:35;;;;;;;;;;;6.90;99.90;;;;;;5216067;27;34760;-81
2022/02/03 21:26:16;;;;;;;;;;;7.00;99.90;;;;;;5179740;27;24966;-81
2022/02/03 21:28:49;;;;;;;;;;;6.90;99.90;;;;;;5196605;27;34018;-80
2022/02/03 21:31:28;;;;;;;;;;;6.90;99.90;;;;;;5217263;27;20003;-81
2022/02/03 21:34:02;;;;;;;;;;;6.90;99.90;;;;;;5215818;27;43093;-81
2022/02/03 21:36:40;;;;;;;;;;;6.90;99.90;;;;;;5215836;27;39191;-82
2022/02/03 21:39:07;;;;;;;;;;;6.90;99.90;;;;;;5216334;27;31787;-81
2022/02/03 21:41:36;;;;;;;;;;;6.90;99.90;;;;;;5196889;27;28540;-82
2022/02/03 21:44:06;;;;;;;;;;;6.90;99.90;;;;;;5196796;27;44374;-81
2022/02/03 21:46:37;;;;;;;;;;;6.90;99.90;;;;;;5197753;27;20004;-80
2022/02/03 21:49:04;;;;;;;;;;;6.90;99.90;;;;;;5198071;27;19995;-81
2022/02/03 21:51:35;;;;;;;;;;;6.90;99.90;;;;;;5196449;27;36027;-81
2022/02/03 21:54:05;;;;;;;;;;;6.90;99.90;;;;;;5179253;27;37752;-81
2022/02/03 21:56:34;;;;;;;;;;;6.90;99.90;;;;;;5196954;27;34545;-81
2022/02/03 21:59:08;;;;;;;;;;;6.90;99.90;;;;;;5196896;27;19998;-80
2022/02/03 22:01:43;;;;;;;;;;;6.90;99.90;;;;;;5197025;27;20010;-81
2022/02/03 22:04:11;;;;;;;;;;;6.90;99.90;;;;;;5197818;27;20003;-81
2022/02/03 22:06:45;;;;;;;;;;;6.90;99.90;;;;;;5197328;27;44995;-81
2022/02/03 22:09:12;;;;;;;;;;;7.00;99.90;;;;;;5197218;27;30734;-81
2022/02/03 22:11:44;;;;;;;;;;;6.90;99.90;;;;;;5215996;27;20046;-81
2022/02/03 22:14:12;;;;;;;;;;;6.90;99.90;;;;;;5178867;27;36419;-80
2022/02/03 22:16:42;;;;;;;;;;;6.90;99.90;;;;;;5179031;27;32250;-81
2022/02/03 22:19:09;;;;;;;;;;;6.90;99.90;;;;;;5214991;27;43682;-80
2022/02/03 22:24:22;;;;;;;;;;;6.90;99.90;;;;;;5217064;27;20040;-80
2022/02/03 22:27:56;;;;;;;;;;;6.90;99.90;;;;;;5200037;27;20011;-81
2022/02/03 22:44:23;;;;;;;;;;;6.90;99.90;;;;;;5197622;27;44072;-81
2022/02/03 22:49:45;;;;;;;;;;;6.90;99.90;;;;;;5217899;27;19996;-81
2022/02/03 22:52:17;;;;;;;;;;;6.90;99.90;;;;;;5217755;27;20328;-81
2022/02/03 22:54:50;;;;;;;;;;;6.90;99.90;;;;;;5182777;27;20084;-81
2022/02/03 22:57:25;;;;;;;;;;;6.90;99.90;;;;;;5198837;27;20045;-81
2022/02/03 23:00:16;;;;;;;;;;;6.90;99.90;;;;;;5198504;27;20343;-80
2022/02/03 23:02:52;;;;;;;;;;;6.90;99.90;;;;;;5181834;27;20377;-81
2022/02/03 23:05:19;;;;;;;;;;;6.90;99.90;;;;;;5198519;27;19996;-81
2022/02/03 23:08:04;;;;;;;;;;;6.90;99.90;;;;;;5197934;27;19996;-80
2022/02/03 23:10:48;;;;;;;;;;;6.90;99.90;;;;;;5181294;27;19995;-81
2022/02/03 23:13:56;;;;;;;;;;;6.90;99.90;;;;;;5180691;27;24959;-81
2022/02/03 23:21:49;;;;;;;;;;;6.90;99.90;;;;;;5218232;27;19991;-81
2022/02/03 23:24:18;;;;;;;;;;;6.90;99.90;;;;;;5180708;27;22642;-80
2022/02/03 23:26:53;;;;;;;;;;;6.90;99.90;;;;;;5198438;27;20070;-80
2022/02/03 23:29:23;;;;;;;;;;;6.90;99.90;;;;;;5199014;27;20461;-80
2022/02/03 23:32:04;;;;;;;;;;;6.90;99.90;;;;;;5198620;27;20061;-81
2022/02/03 23:34:31;;;;;;;;;;;6.90;99.90;;;;;;5199106;27;20015;-80
2022/02/03 23:37:03;;;;;;;;;;;6.90;99.90;;;;;;5217300;27;20412;-81
2022/02/03 23:51:01;;;;;;;;;;;6.90;99.90;;;;;;5198587;27;19983;-80
